Terminal Aerodrome Forecast
Issued by NWS

Home | Current Version | Previous Version | Text Only | Print | Product List | Glossary On
Versions: 1 2 3 4 5 6 7 8 9 10 11 12 13 14 15 16 17 18 19
000
FTUS42 KMLB 011720
TAFFPR
TAF
KFPR 011720Z 0118/0218 12010KT P6SM SCT035
     FM020000 13005KT P6SM FEW030 SCT250
     FM020300 00000KT P6SM SCT250
     FM021300 20004KT P6SM FEW025 SCT250=

USA.gov is the U.S. government's official web portal to all federal, state and local government web resources and services.